sensor_id;sensor_type;location;lat;lon;timestamp;P1;durP1;ratioP1;P2;durP2;ratioP2
14883;SDS011;7534;50.762;7.000;2023-04-29T00:02:18;9.10;;;7.97;;
14883;SDS011;7534;50.762;7.000;2023-04-29T00:04:43;8.70;;;7.27;;
14883;SDS011;7534;50.762;7.000;2023-04-29T00:07:09;9.23;;;7.70;;
14883;SDS011;7534;50.762;7.000;2023-04-29T00:09:39;8.23;;;7.40;;
14883;SDS011;7534;50.762;7.000;2023-04-29T00:12:05;10.37;;;7.87;;
14883;SDS011;7534;50.762;7.000;2023-04-29T00:14:31;9.70;;;8.63;;
14883;SDS011;7534;50.762;7.000;2023-04-29T00:16:56;11.03;;;9.90;;
14883;SDS011;7534;50.762;7.000;2023-04-29T00:19:22;11.30;;;10.03;;
14883;SDS011;7534;50.762;7.000;2023-04-29T00:21:48;12.00;;;9.77;;
14883;SDS011;7534;50.762;7.000;2023-04-29T00:24:14;11.13;;;9.57;;
14883;SDS011;7534;50.762;7.000;2023-04-29T00:26:39;11.13;;;9.00;;
14883;SDS011;7534;50.762;7.000;2023-04-29T00:29:05;11.40;;;9.57;;
14883;SDS011;7534;50.762;7.000;2023-04-29T00:31:31;11.03;;;9.23;;
14883;SDS011;7534;50.762;7.000;2023-04-29T00:33:57;12.17;;;9.67;;
14883;SDS011;7534;50.762;7.000;2023-04-29T00:36:22;11.13;;;9.20;;
14883;SDS011;7534;50.762;7.000;2023-04-29T00:38:48;11.13;;;9.17;;
14883;SDS011;7534;50.762;7.000;2023-04-29T00:41:14;13.30;;;10.30;;
14883;SDS011;7534;50.762;7.000;2023-04-29T00:43:40;10.67;;;9.37;;
14883;SDS011;7534;50.762;7.000;2023-04-29T00:46:06;14.53;;;10.50;;
14883;SDS011;7534;50.762;7.000;2023-04-29T00:48:31;12.83;;;10.17;;
14883;SDS011;7534;50.762;7.000;2023-04-29T00:50:58;13.53;;;10.27;;
14883;SDS011;7534;50.762;7.000;2023-04-29T00:53:24;13.30;;;10.03;;
14883;SDS011;7534;50.762;7.000;2023-04-29T00:55:50;13.27;;;9.97;;
14883;SDS011;7534;50.762;7.000;2023-04-29T00:58:16;12.77;;;10.63;;
14883;SDS011;7534;50.762;7.000;2023-04-29T01:00:43;11.97;;;10.03;;
14883;SDS011;7534;50.762;7.000;2023-04-29T01:03:10;13.17;;;10.30;;
14883;SDS011;7534;50.762;7.000;2023-04-29T01:05:37;13.37;;;9.43;;
14883;SDS011;7534;50.762;7.000;2023-04-29T01:13:28;12.40;;;10.20;;
14883;SDS011;7534;50.762;7.000;2023-04-29T01:16:06;14.20;;;10.13;;
14883;SDS011;7534;50.762;7.000;2023-04-29T01:18:43;10.50;;;9.17;;
14883;SDS011;7534;50.762;7.000;2023-04-29T01:21:18;12.33;;;9.53;;
14883;SDS011;7534;50.762;7.000;2023-04-29T01:23:44;12.20;;;9.40;;
14883;SDS011;7534;50.762;7.000;2023-04-29T01:26:10;11.83;;;9.83;;
14883;SDS011;7534;50.762;7.000;2023-04-29T01:28:42;13.57;;;9.30;;
14883;SDS011;7534;50.762;7.000;2023-04-29T01:42:47;11.07;;;8.47;;
14883;SDS011;7534;50.762;7.000;2023-04-29T01:45:25;11.20;;;8.30;;
14883;SDS011;7534;50.762;7.000;2023-04-29T01:47:52;9.27;;;7.90;;
14883;SDS011;7534;50.762;7.000;2023-04-29T01:50:22;10.83;;;7.83;;
14883;SDS011;7534;50.762;7.000;2023-04-29T01:52:48;10.70;;;8.10;;
14883;SDS011;7534;50.762;7.000;2023-04-29T01:55:14;8.77;;;7.43;;
14883;SDS011;7534;50.762;7.000;2023-04-29T01:57:40;9.40;;;7.23;;
14883;SDS011;7534;50.762;7.000;2023-04-29T02:00:06;8.20;;;7.33;;
14883;SDS011;7534;50.762;7.000;2023-04-29T02:02:33;9.10;;;7.00;;
14883;SDS011;7534;50.762;7.000;2023-04-29T02:04:59;8.20;;;7.10;;
14883;SDS011;7534;50.762;7.000;2023-04-29T02:07:25;8.83;;;7.10;;
14883;SDS011;7534;50.762;7.000;2023-04-29T02:09:51;9.07;;;7.57;;
14883;SDS011;7534;50.762;7.000;2023-04-29T02:12:17;9.23;;;7.60;;
14883;SDS011;7534;50.762;7.000;2023-04-29T02:14:42;9.63;;;7.40;;
14883;SDS011;7534;50.762;7.000;2023-04-29T02:17:17;10.57;;;8.27;;
14883;SDS011;7534;50.762;7.000;2023-04-29T02:19:43;11.13;;;8.53;;
14883;SDS011;7534;50.762;7.000;2023-04-29T02:22:09;15.50;;;12.23;;
14883;SDS011;7534;50.762;7.000;2023-04-29T02:24:36;18.10;;;13.03;;
14883;SDS011;7534;50.762;7.000;2023-04-29T02:27:03;18.67;;;13.67;;
14883;SDS011;7534;50.762;7.000;2023-04-29T02:29:30;20.40;;;14.90;;
14883;SDS011;7534;50.762;7.000;2023-04-29T02:31:57;21.93;;;15.37;;
14883;SDS011;7534;50.762;7.000;2023-04-29T02:34:23;20.43;;;15.20;;
14883;SDS011;7534;50.762;7.000;2023-04-29T02:36:49;20.17;;;14.23;;
14883;SDS011;7534;50.762;7.000;2023-04-29T02:39:14;20.23;;;14.67;;
14883;SDS011;7534;50.762;7.000;2023-04-29T02:41:40;19.57;;;13.47;;
14883;SDS011;7534;50.762;7.000;2023-04-29T02:44:06;21.10;;;14.43;;
14883;SDS011;7534;50.762;7.000;2023-04-29T02:46:32;22.03;;;16.37;;
14883;SDS011;7534;50.762;7.000;2023-04-29T02:49:00;22.37;;;16.07;;
14883;SDS011;7534;50.762;7.000;2023-04-29T02:51:26;23.00;;;17.17;;
14883;SDS011;7534;50.762;7.000;2023-04-29T02:53:52;22.97;;;16.43;;
14883;SDS011;7534;50.762;7.000;2023-04-29T02:56:18;23.43;;;16.50;;
14883;SDS011;7534;50.762;7.000;2023-04-29T02:58:44;23.27;;;16.23;;
14883;SDS011;7534;50.762;7.000;2023-04-29T03:01:10;24.33;;;17.60;;
14883;SDS011;7534;50.762;7.000;2023-04-29T03:03:35;24.47;;;17.63;;
14883;SDS011;7534;50.762;7.000;2023-04-29T03:06:01;26.63;;;18.13;;
14883;SDS011;7534;50.762;7.000;2023-04-29T03:08:27;24.53;;;17.50;;
14883;SDS011;7534;50.762;7.000;2023-04-29T03:10:53;24.77;;;17.97;;
14883;SDS011;7534;50.762;7.000;2023-04-29T03:13:19;26.13;;;18.70;;
14883;SDS011;7534;50.762;7.000;2023-04-29T03:15:45;26.87;;;18.00;;
14883;SDS011;7534;50.762;7.000;2023-04-29T03:18:10;24.80;;;18.10;;
14883;SDS011;7534;50.762;7.000;2023-04-29T03:20:36;26.63;;;18.53;;
14883;SDS011;7534;50.762;7.000;2023-04-29T03:23:02;29.63;;;18.90;;
14883;SDS011;7534;50.762;7.000;2023-04-29T03:25:28;26.50;;;19.00;;
14883;SDS011;7534;50.762;7.000;2023-04-29T03:27:54;28.77;;;19.10;;
14883;SDS011;7534;50.762;7.000;2023-04-29T03:30:20;27.73;;;19.30;;
14883;SDS011;7534;50.762;7.000;2023-04-29T03:32:45;28.53;;;19.40;;
14883;SDS011;7534;50.762;7.000;2023-04-29T03:35:11;28.30;;;20.13;;
14883;SDS011;7534;50.762;7.000;2023-04-29T03:37:37;28.23;;;19.60;;
14883;SDS011;7534;50.762;7.000;2023-04-29T03:40:03;28.97;;;20.30;;
14883;SDS011;7534;50.762;7.000;2023-04-29T03:42:30;30.20;;;20.43;;
14883;SDS011;7534;50.762;7.000;2023-04-29T03:44:56;28.03;;;19.67;;
14883;SDS011;7534;50.762;7.000;2023-04-29T03:47:22;29.97;;;21.37;;
14883;SDS011;7534;50.762;7.000;2023-04-29T03:49:48;31.53;;;21.57;;
14883;SDS011;7534;50.762;7.000;2023-04-29T03:52:13;32.07;;;21.67;;
14883;SDS011;7534;50.762;7.000;2023-04-29T03:54:40;35.33;;;23.20;;
14883;SDS011;7534;50.762;7.000;2023-04-29T03:57:06;33.43;;;22.37;;
14883;SDS011;7534;50.762;7.000;2023-04-29T03:59:31;36.37;;;23.20;;
14883;SDS011;7534;50.762;7.000;2023-04-29T04:01:57;39.67;;;25.00;;
14883;SDS011;7534;50.762;7.000;2023-04-29T04:04:23;38.60;;;25.03;;
14883;SDS011;7534;50.762;7.000;2023-04-29T04:06:49;40.83;;;25.90;;
14883;SDS011;7534;50.762;7.000;2023-04-29T04:09:15;38.57;;;25.00;;
14883;SDS011;7534;50.762;7.000;2023-04-29T04:11:43;42.53;;;26.07;;
14883;SDS011;7534;50.762;7.000;2023-04-29T04:14:09;41.70;;;26.47;;
14883;SDS011;7534;50.762;7.000;2023-04-29T04:16:35;47.17;;;28.97;;
14883;SDS011;7534;50.762;7.000;2023-04-29T04:19:01;48.23;;;29.90;;
14883;SDS011;7534;50.762;7.000;2023-04-29T04:21:27;52.90;;;30.30;;
14883;SDS011;7534;50.762;7.000;2023-04-29T04:23:54;56.80;;;31.27;;
14883;SDS011;7534;50.762;7.000;2023-04-29T04:26:20;55.07;;;30.23;;
14883;SDS011;7534;50.762;7.000;2023-04-29T04:28:47;59.30;;;32.57;;
14883;SDS011;7534;50.762;7.000;2023-04-29T04:31:13;59.73;;;32.57;;
14883;SDS011;7534;50.762;7.000;2023-04-29T04:33:39;64.23;;;32.43;;
14883;SDS011;7534;50.762;7.000;2023-04-29T04:36:05;65.07;;;33.70;;
14883;SDS011;7534;50.762;7.000;2023-04-29T04:38:31;73.97;;;36.33;;
14883;SDS011;7534;50.762;7.000;2023-04-29T04:40:57;66.80;;;34.70;;
14883;SDS011;7534;50.762;7.000;2023-04-29T04:43:23;72.53;;;36.30;;
14883;SDS011;7534;50.762;7.000;2023-04-29T04:45:49;73.70;;;34.30;;
14883;SDS011;7534;50.762;7.000;2023-04-29T04:48:15;75.03;;;37.20;;
14883;SDS011;7534;50.762;7.000;2023-04-29T04:50:41;73.30;;;35.97;;
14883;SDS011;7534;50.762;7.000;2023-04-29T04:53:07;77.03;;;37.60;;
14883;SDS011;7534;50.762;7.000;2023-04-29T04:55:33;78.47;;;38.20;;
14883;SDS011;7534;50.762;7.000;2023-04-29T04:57:58;82.47;;;38.47;;
14883;SDS011;7534;50.762;7.000;2023-04-29T05:00:24;85.87;;;38.37;;
14883;SDS011;7534;50.762;7.000;2023-04-29T05:02:50;93.63;;;39.03;;
14883;SDS011;7534;50.762;7.000;2023-04-29T05:05:16;83.77;;;39.13;;
14883;SDS011;7534;50.762;7.000;2023-04-29T05:07:42;81.20;;;37.57;;
14883;SDS011;7534;50.762;7.000;2023-04-29T05:10:08;83.93;;;37.47;;
14883;SDS011;7534;50.762;7.000;2023-04-29T05:12:35;73.33;;;33.90;;
14883;SDS011;7534;50.762;7.000;2023-04-29T05:15:01;73.67;;;33.40;;
14883;SDS011;7534;50.762;7.000;2023-04-29T05:17:28;72.37;;;32.83;;
14883;SDS011;7534;50.762;7.000;2023-04-29T05:19:54;67.30;;;30.80;;
14883;SDS011;7534;50.762;7.000;2023-04-29T05:22:20;72.90;;;31.07;;
14883;SDS011;7534;50.762;7.000;2023-04-29T05:24:46;71.53;;;29.60;;
14883;SDS011;7534;50.762;7.000;2023-04-29T05:27:15;68.00;;;31.67;;
14883;SDS011;7534;50.762;7.000;2023-04-29T05:29:41;72.13;;;31.63;;
14883;SDS011;7534;50.762;7.000;2023-04-29T05:32:07;74.47;;;31.77;;
14883;SDS011;7534;50.762;7.000;2023-04-29T05:34:33;68.90;;;31.13;;
14883;SDS011;7534;50.762;7.000;2023-04-29T05:36:59;74.30;;;31.27;;
14883;SDS011;7534;50.762;7.000;2023-04-29T05:39:24;65.70;;;30.40;;
14883;SDS011;7534;50.762;7.000;2023-04-29T05:41:50;65.00;;;28.33;;
14883;SDS011;7534;50.762;7.000;2023-04-29T05:44:16;68.47;;;29.97;;
14883;SDS011;7534;50.762;7.000;2023-04-29T05:46:42;67.07;;;29.67;;
14883;SDS011;7534;50.762;7.000;2023-04-29T05:49:08;63.57;;;27.97;;
14883;SDS011;7534;50.762;7.000;2023-04-29T05:51:34;68.53;;;30.47;;
14883;SDS011;7534;50.762;7.000;2023-04-29T05:53:59;65.17;;;29.03;;
14883;SDS011;7534;50.762;7.000;2023-04-29T05:56:31;61.73;;;29.47;;
14883;SDS011;7534;50.762;7.000;2023-04-29T06:01:27;66.60;;;29.80;;
14883;SDS011;7534;50.762;7.000;2023-04-29T06:03:53;68.83;;;29.80;;
14883;SDS011;7534;50.762;7.000;2023-04-29T06:06:19;60.53;;;27.83;;
14883;SDS011;7534;50.762;7.000;2023-04-29T06:08:45;55.43;;;27.00;;
14883;SDS011;7534;50.762;7.000;2023-04-29T06:11:11;54.50;;;27.00;;
14883;SDS011;7534;50.762;7.000;2023-04-29T06:13:37;52.00;;;25.27;;
14883;SDS011;7534;50.762;7.000;2023-04-29T06:16:02;52.20;;;25.43;;
14883;SDS011;7534;50.762;7.000;2023-04-29T06:18:28;50.50;;;25.23;;
14883;SDS011;7534;50.762;7.000;2023-04-29T06:20:54;50.30;;;23.37;;
14883;SDS011;7534;50.762;7.000;2023-04-29T06:23:20;50.57;;;24.57;;
14883;SDS011;7534;50.762;7.000;2023-04-29T06:25:47;45.57;;;23.27;;
14883;SDS011;7534;50.762;7.000;2023-04-29T06:28:12;46.77;;;23.83;;
14883;SDS011;7534;50.762;7.000;2023-04-29T06:30:38;42.37;;;23.13;;
14883;SDS011;7534;50.762;7.000;2023-04-29T06:33:03;43.63;;;25.13;;
14883;SDS011;7534;50.762;7.000;2023-04-29T06:35:29;47.92;;;29.92;;
14883;SDS011;7534;50.762;7.000;2023-04-29T06:37:55;39.83;;;23.37;;
14883;SDS011;7534;50.762;7.000;2023-04-29T06:40:21;38.50;;;21.10;;
14883;SDS011;7534;50.762;7.000;2023-04-29T06:42:46;38.93;;;21.40;;
14883;SDS011;7534;50.762;7.000;2023-04-29T06:45:12;36.00;;;19.60;;
14883;SDS011;7534;50.762;7.000;2023-04-29T06:47:38;35.17;;;19.80;;
14883;SDS011;7534;50.762;7.000;2023-04-29T06:50:04;31.73;;;18.30;;
14883;SDS011;7534;50.762;7.000;2023-04-29T06:52:30;33.07;;;18.33;;
14883;SDS011;7534;50.762;7.000;2023-04-29T06:54:57;31.13;;;17.73;;
14883;SDS011;7534;50.762;7.000;2023-04-29T06:57:22;30.33;;;17.57;;
14883;SDS011;7534;50.762;7.000;2023-04-29T06:59:48;33.50;;;18.13;;
14883;SDS011;7534;50.762;7.000;2023-04-29T07:02:14;32.37;;;18.13;;
14883;SDS011;7534;50.762;7.000;2023-04-29T07:04:40;27.80;;;17.40;;
14883;SDS011;7534;50.762;7.000;2023-04-29T07:07:06;27.97;;;18.13;;
14883;SDS011;7534;50.762;7.000;2023-04-29T07:09:31;27.33;;;17.50;;
14883;SDS011;7534;50.762;7.000;2023-04-29T07:11:57;26.63;;;16.97;;
14883;SDS011;7534;50.762;7.000;2023-04-29T07:14:23;29.53;;;17.20;;
14883;SDS011;7534;50.762;7.000;2023-04-29T07:16:52;30.90;;;17.50;;
14883;SDS011;7534;50.762;7.000;2023-04-29T07:19:19;25.63;;;17.23;;
14883;SDS011;7534;50.762;7.000;2023-04-29T07:21:45;27.37;;;15.90;;
14883;SDS011;7534;50.762;7.000;2023-04-29T07:24:11;25.67;;;15.80;;
14883;SDS011;7534;50.762;7.000;2023-04-29T07:26:37;26.50;;;15.97;;
14883;SDS011;7534;50.762;7.000;2023-04-29T07:29:02;25.87;;;16.17;;
14883;SDS011;7534;50.762;7.000;2023-04-29T07:31:28;24.27;;;15.07;;
14883;SDS011;7534;50.762;7.000;2023-04-29T07:33:54;23.97;;;14.93;;
14883;SDS011;7534;50.762;7.000;2023-04-29T07:36:19;21.03;;;14.70;;
14883;SDS011;7534;50.762;7.000;2023-04-29T07:38:45;18.93;;;13.33;;
14883;SDS011;7534;50.762;7.000;2023-04-29T07:41:11;20.23;;;14.10;;
14883;SDS011;7534;50.762;7.000;2023-04-29T07:43:37;19.07;;;12.90;;
14883;SDS011;7534;50.762;7.000;2023-04-29T07:46:03;23.00;;;13.60;;
14883;SDS011;7534;50.762;7.000;2023-04-29T07:48:29;21.63;;;14.27;;
14883;SDS011;7534;50.762;7.000;2023-04-29T07:50:55;19.43;;;13.23;;
14883;SDS011;7534;50.762;7.000;2023-04-29T07:53:21;20.37;;;14.00;;
14883;SDS011;7534;50.762;7.000;2023-04-29T07:55:47;18.77;;;14.43;;
14883;SDS011;7534;50.762;7.000;2023-04-29T07:58:13;20.87;;;17.33;;
14883;SDS011;7534;50.762;7.000;2023-04-29T08:00:38;19.47;;;14.70;;
14883;SDS011;7534;50.762;7.000;2023-04-29T08:03:04;18.87;;;13.60;;
14883;SDS011;7534;50.762;7.000;2023-04-29T08:05:30;19.20;;;13.47;;
14883;SDS011;7534;50.762;7.000;2023-04-29T08:07:55;19.47;;;13.77;;
14883;SDS011;7534;50.762;7.000;2023-04-29T08:10:21;17.57;;;12.37;;
14883;SDS011;7534;50.762;7.000;2023-04-29T08:12:48;15.63;;;11.67;;
14883;SDS011;7534;50.762;7.000;2023-04-29T08:15:14;16.03;;;12.73;;
14883;SDS011;7534;50.762;7.000;2023-04-29T08:17:40;16.60;;;12.43;;
14883;SDS011;7534;50.762;7.000;2023-04-29T08:20:06;16.17;;;12.93;;
14883;SDS011;7534;50.762;7.000;2023-04-29T08:22:33;15.97;;;12.53;;
14883;SDS011;7534;50.762;7.000;2023-04-29T08:24:59;16.27;;;12.40;;
14883;SDS011;7534;50.762;7.000;2023-04-29T08:27:25;15.93;;;12.67;;
14883;SDS011;7534;50.762;7.000;2023-04-29T08:29:51;17.93;;;12.27;;
14883;SDS011;7534;50.762;7.000;2023-04-29T08:32:16;15.90;;;13.17;;
14883;SDS011;7534;50.762;7.000;2023-04-29T08:34:42;15.23;;;12.77;;
14883;SDS011;7534;50.762;7.000;2023-04-29T08:37:08;16.57;;;13.00;;
14883;SDS011;7534;50.762;7.000;2023-04-29T08:39:35;13.60;;;12.20;;
14883;SDS011;7534;50.762;7.000;2023-04-29T08:42:10;16.47;;;11.63;;
14883;SDS011;7534;50.762;7.000;2023-04-29T08:44:36;17.73;;;13.60;;
14883;SDS011;7534;50.762;7.000;2023-04-29T08:47:04;18.53;;;13.90;;
14883;SDS011;7534;50.762;7.000;2023-04-29T08:49:31;19.43;;;14.03;;
14883;SDS011;7534;50.762;7.000;2023-04-29T08:51:58;18.03;;;14.37;;
14883;SDS011;7534;50.762;7.000;2023-04-29T08:54:24;22.23;;;15.80;;
14883;SDS011;7534;50.762;7.000;2023-04-29T08:56:51;17.77;;;13.67;;
14883;SDS011;7534;50.762;7.000;2023-04-29T08:59:19;20.33;;;14.23;;
14883;SDS011;7534;50.762;7.000;2023-04-29T09:01:47;18.90;;;14.27;;
14883;SDS011;7534;50.762;7.000;2023-04-29T09:07:07;18.10;;;14.57;;
14883;SDS011;7534;50.762;7.000;2023-04-29T09:09:35;20.93;;;15.53;;
14883;SDS011;7534;50.762;7.000;2023-04-29T09:12:03;19.43;;;15.17;;
14883;SDS011;7534;50.762;7.000;2023-04-29T09:14:29;17.77;;;14.40;;
14883;SDS011;7534;50.762;7.000;2023-04-29T09:16:58;17.87;;;14.57;;
14883;SDS011;7534;50.762;7.000;2023-04-29T09:19:34;20.40;;;14.20;;
14883;SDS011;7534;50.762;7.000;2023-04-29T09:22:01;18.07;;;13.77;;
14883;SDS011;7534;50.762;7.000;2023-04-29T09:24:29;18.47;;;13.97;;
14883;SDS011;7534;50.762;7.000;2023-04-29T09:26:56;14.90;;;13.07;;
14883;SDS011;7534;50.762;7.000;2023-04-29T09:29:24;20.07;;;14.67;;
14883;SDS011;7534;50.762;7.000;2023-04-29T09:31:50;16.70;;;13.60;;
14883;SDS011;7534;50.762;7.000;2023-04-29T09:34:17;15.77;;;13.30;;
14883;SDS011;7534;50.762;7.000;2023-04-29T09:37:06;15.97;;;12.87;;
14883;SDS011;7534;50.762;7.000;2023-04-29T09:39:52;17.10;;;12.33;;
14883;SDS011;7534;50.762;7.000;2023-04-29T09:42:18;15.67;;;11.80;;
14883;SDS011;7534;50.762;7.000;2023-04-29T09:44:44;16.47;;;12.33;;
14883;SDS011;7534;50.762;7.000;2023-04-29T09:47:10;14.10;;;12.10;;
14883;SDS011;7534;50.762;7.000;2023-04-29T09:49:38;13.03;;;11.63;;
14883;SDS011;7534;50.762;7.000;2023-04-29T09:54:35;14.43;;;11.07;;
14883;SDS011;7534;50.762;7.000;2023-04-29T09:57:05;12.90;;;11.10;;
14883;SDS011;7534;50.762;7.000;2023-04-29T09:59:34;14.15;;;11.30;;
14883;SDS011;7534;50.762;7.000;2023-04-29T10:02:14;12.23;;;10.77;;
14883;SDS011;7534;50.762;7.000;2023-04-29T10:04:52;13.63;;;10.35;;
14883;SDS011;7534;50.762;7.000;2023-04-29T10:07:21;12.02;;;10.70;;
14883;SDS011;7534;50.762;7.000;2023-04-29T10:09:50;13.10;;;11.15;;
14883;SDS011;7534;50.762;7.000;2023-04-29T10:12:17;12.95;;;10.82;;
14883;SDS011;7534;50.762;7.000;2023-04-29T10:15:09;14.48;;;11.95;;
14883;SDS011;7534;50.762;7.000;2023-04-29T10:18:19;15.40;;;12.85;;
14883;SDS011;7534;50.762;7.000;2023-04-29T10:20:46;17.20;;;13.65;;
14883;SDS011;7534;50.762;7.000;2023-04-29T10:23:13;18.50;;;13.38;;
14883;SDS011;7534;50.762;7.000;2023-04-29T10:25:43;20.00;;;15.48;;
14883;SDS011;7534;50.762;7.000;2023-04-29T10:28:13;20.70;;;15.60;;
14883;SDS011;7534;50.762;7.000;2023-04-29T10:30:43;23.70;;;15.77;;
14883;SDS011;7534;50.762;7.000;2023-04-29T10:33:16;16.77;;;13.73;;
14883;SDS011;7534;50.762;7.000;2023-04-29T10:41:25;19.43;;;14.87;;
14883;SDS011;7534;50.762;7.000;2023-04-29T10:43:57;19.33;;;14.53;;
14883;SDS011;7534;50.762;7.000;2023-04-29T10:46:24;19.67;;;15.87;;
14883;SDS011;7534;50.762;7.000;2023-04-29T10:49:00;23.63;;;16.30;;
14883;SDS011;7534;50.762;7.000;2023-04-29T10:51:44;21.17;;;16.70;;
14883;SDS011;7534;50.762;7.000;2023-04-29T10:54:16;22.30;;;16.73;;
14883;SDS011;7534;50.762;7.000;2023-04-29T10:56:50;22.13;;;17.47;;
14883;SDS011;7534;50.762;7.000;2023-04-29T11:01:53;23.83;;;18.20;;
14883;SDS011;7534;50.762;7.000;2023-04-29T11:04:19;23.97;;;18.53;;
14883;SDS011;7534;50.762;7.000;2023-04-29T11:06:56;23.53;;;18.33;;
14883;SDS011;7534;50.762;7.000;2023-04-29T11:09:27;22.70;;;17.20;;
14883;SDS011;7534;50.762;7.000;2023-04-29T11:11:56;22.73;;;16.93;;
14883;SDS011;7534;50.762;7.000;2023-04-29T11:17:07;26.27;;;18.83;;
14883;SDS011;7534;50.762;7.000;2023-04-29T11:19:43;30.70;;;25.50;;
14883;SDS011;7534;50.762;7.000;2023-04-29T11:24:47;29.57;;;20.93;;
14883;SDS011;7534;50.762;7.000;2023-04-29T11:27:34;26.13;;;20.93;;
14883;SDS011;7534;50.762;7.000;2023-04-29T11:30:03;27.27;;;20.90;;
14883;SDS011;7534;50.762;7.000;2023-04-29T11:32:44;23.93;;;17.20;;
14883;SDS011;7534;50.762;7.000;2023-04-29T11:35:18;24.27;;;19.03;;
14883;SDS011;7534;50.762;7.000;2023-04-29T11:37:46;18.40;;;14.73;;
14883;SDS011;7534;50.762;7.000;2023-04-29T11:40:12;21.17;;;15.27;;
14883;SDS011;7534;50.762;7.000;2023-04-29T11:42:48;18.17;;;14.97;;
14883;SDS011;7534;50.762;7.000;2023-04-29T11:45:17;17.20;;;13.77;;
14883;SDS011;7534;50.762;7.000;2023-04-29T11:47:44;19.70;;;16.13;;
14883;SDS011;7534;50.762;7.000;2023-04-29T11:50:12;18.67;;;13.97;;
14883;SDS011;7534;50.762;7.000;2023-04-29T11:52:45;18.87;;;14.87;;
14883;SDS011;7534;50.762;7.000;2023-04-29T11:55:12;20.97;;;16.03;;
14883;SDS011;7534;50.762;7.000;2023-04-29T11:57:38;22.13;;;14.73;;
14883;SDS011;7534;50.762;7.000;2023-04-29T12:00:07;17.93;;;14.13;;
14883;SDS011;7534;50.762;7.000;2023-04-29T12:02:37;18.93;;;16.17;;
14883;SDS011;7534;50.762;7.000;2023-04-29T12:05:07;23.83;;;17.73;;
14883;SDS011;7534;50.762;7.000;2023-04-29T12:07:36;22.57;;;15.97;;
14883;SDS011;7534;50.762;7.000;2023-04-29T12:10:06;33.70;;;22.60;;
14883;SDS011;7534;50.762;7.000;2023-04-29T12:12:36;19.07;;;15.30;;
14883;SDS011;7534;50.762;7.000;2023-04-29T12:15:05;23.93;;;18.33;;
14883;SDS011;7534;50.762;7.000;2023-04-29T12:17:34;21.73;;;15.80;;
14883;SDS011;7534;50.762;7.000;2023-04-29T12:20:00;21.13;;;16.83;;
14883;SDS011;7534;50.762;7.000;2023-04-29T12:22:32;26.80;;;18.77;;
14883;SDS011;7534;50.762;7.000;2023-04-29T12:24:58;26.30;;;19.73;;
14883;SDS011;7534;50.762;7.000;2023-04-29T12:27:24;24.03;;;19.43;;
14883;SDS011;7534;50.762;7.000;2023-04-29T12:29:51;25.07;;;18.70;;
14883;SDS011;7534;50.762;7.000;2023-04-29T12:32:17;27.13;;;19.50;;
14883;SDS011;7534;50.762;7.000;2023-04-29T12:34:49;26.17;;;21.10;;
14883;SDS011;7534;50.762;7.000;2023-04-29T12:37:21;34.20;;;24.70;;
14883;SDS011;7534;50.762;7.000;2023-04-29T12:39:48;27.50;;;22.60;;
14883;SDS011;7534;50.762;7.000;2023-04-29T12:42:15;28.63;;;22.10;;
14883;SDS011;7534;50.762;7.000;2023-04-29T12:44:43;34.40;;;24.83;;
14883;SDS011;7534;50.762;7.000;2023-04-29T12:47:11;35.10;;;25.77;;
14883;SDS011;7534;50.762;7.000;2023-04-29T12:49:41;36.53;;;27.37;;
14883;SDS011;7534;50.762;7.000;2023-04-29T12:52:11;32.27;;;25.20;;
14883;SDS011;7534;50.762;7.000;2023-04-29T12:54:38;30.97;;;22.83;;
14883;SDS011;7534;50.762;7.000;2023-04-29T12:57:10;31.93;;;23.10;;
14883;SDS011;7534;50.762;7.000;2023-04-29T12:59:37;33.33;;;24.13;;
14883;SDS011;7534;50.762;7.000;2023-04-29T13:02:04;36.37;;;23.90;;
14883;SDS011;7534;50.762;7.000;2023-04-29T13:04:30;36.63;;;26.97;;
14883;SDS011;7534;50.762;7.000;2023-04-29T13:06:56;38.07;;;25.20;;
14883;SDS011;7534;50.762;7.000;2023-04-29T13:09:27;41.77;;;29.00;;
14883;SDS011;7534;50.762;7.000;2023-04-29T13:11:54;43.80;;;29.87;;
14883;SDS011;7534;50.762;7.000;2023-04-29T13:14:20;46.77;;;31.17;;
14883;SDS011;7534;50.762;7.000;2023-04-29T13:16:46;48.53;;;32.87;;
14883;SDS011;7534;50.762;7.000;2023-04-29T13:19:12;55.70;;;34.63;;
14883;SDS011;7534;50.762;7.000;2023-04-29T13:21:37;53.20;;;35.00;;
14883;SDS011;7534;50.762;7.000;2023-04-29T13:24:03;54.50;;;37.27;;
14883;SDS011;7534;50.762;7.000;2023-04-29T13:26:30;55.90;;;39.43;;
14883;SDS011;7534;50.762;7.000;2023-04-29T13:28:56;56.43;;;38.17;;
14883;SDS011;7534;50.762;7.000;2023-04-29T13:31:22;56.43;;;39.37;;
14883;SDS011;7534;50.762;7.000;2023-04-29T13:33:47;67.37;;;42.80;;
14883;SDS011;7534;50.762;7.000;2023-04-29T13:36:13;58.07;;;41.50;;
14883;SDS011;7534;50.762;7.000;2023-04-29T13:38:39;68.87;;;44.90;;
14883;SDS011;7534;50.762;7.000;2023-04-29T13:41:05;65.60;;;44.20;;
14883;SDS011;7534;50.762;7.000;2023-04-29T13:43:31;71.88;;;49.25;;
14883;SDS011;7534;50.762;7.000;2023-04-29T13:45:57;68.80;;;47.13;;
14883;SDS011;7534;50.762;7.000;2023-04-29T13:48:23;65.57;;;44.43;;
14883;SDS011;7534;50.762;7.000;2023-04-29T13:50:48;60.07;;;42.50;;
14883;SDS011;7534;50.762;7.000;2023-04-29T13:53:14;60.03;;;41.97;;
14883;SDS011;7534;50.762;7.000;2023-04-29T13:55:41;62.57;;;41.53;;
14883;SDS011;7534;50.762;7.000;2023-04-29T13:58:07;67.30;;;43.78;;
14883;SDS011;7534;50.762;7.000;2023-04-29T14:00:33;82.15;;;52.47;;
14883;SDS011;7534;50.762;7.000;2023-04-29T14:02:58;77.93;;;52.50;;
14883;SDS011;7534;50.762;7.000;2023-04-29T14:05:24;82.45;;;57.78;;
14883;SDS011;7534;50.762;7.000;2023-04-29T14:07:50;50.38;;;37.78;;
14883;SDS011;7534;50.762;7.000;2023-04-29T14:10:16;49.22;;;36.63;;
14883;SDS011;7534;50.762;7.000;2023-04-29T14:12:42;49.60;;;35.05;;
14883;SDS011;7534;50.762;7.000;2023-04-29T14:15:09;47.70;;;35.85;;
14883;SDS011;7534;50.762;7.000;2023-04-29T14:17:35;48.17;;;36.78;;
14883;SDS011;7534;50.762;7.000;2023-04-29T14:20:01;46.17;;;34.97;;
14883;SDS011;7534;50.762;7.000;2023-04-29T14:22:28;43.72;;;33.30;;
14883;SDS011;7534;50.762;7.000;2023-04-29T14:24:53;45.53;;;34.25;;
14883;SDS011;7534;50.762;7.000;2023-04-29T14:27:19;44.60;;;35.45;;
14883;SDS011;7534;50.762;7.000;2023-04-29T14:29:45;42.00;;;34.13;;
14883;SDS011;7534;50.762;7.000;2023-04-29T14:32:11;44.45;;;34.30;;
14883;SDS011;7534;50.762;7.000;2023-04-29T14:34:37;41.53;;;32.78;;
14883;SDS011;7534;50.762;7.000;2023-04-29T14:37:03;39.13;;;32.10;;
14883;SDS011;7534;50.762;7.000;2023-04-29T14:41:57;38.33;;;30.58;;
14883;SDS011;7534;50.762;7.000;2023-04-29T14:47:11;42.83;;;32.55;;
14883;SDS011;7534;50.762;7.000;2023-04-29T14:49:36;34.65;;;29.00;;
14883;SDS011;7534;50.762;7.000;2023-04-29T14:52:02;38.42;;;30.40;;
14883;SDS011;7534;50.762;7.000;2023-04-29T14:54:28;39.03;;;31.20;;
14883;SDS011;7534;50.762;7.000;2023-04-29T14:56:55;33.83;;;29.02;;
14883;SDS011;7534;50.762;7.000;2023-04-29T14:59:21;38.80;;;29.65;;
14883;SDS011;7534;50.762;7.000;2023-04-29T15:01:46;34.80;;;27.88;;
14883;SDS011;7534;50.762;7.000;2023-04-29T15:04:12;33.03;;;26.05;;
14883;SDS011;7534;50.762;7.000;2023-04-29T15:06:38;31.42;;;25.42;;
14883;SDS011;7534;50.762;7.000;2023-04-29T15:09:04;30.95;;;25.83;;
14883;SDS011;7534;50.762;7.000;2023-04-29T15:11:30;28.48;;;23.45;;
14883;SDS011;7534;50.762;7.000;2023-04-29T15:13:57;33.10;;;26.05;;
14883;SDS011;7534;50.762;7.000;2023-04-29T15:16:22;31.75;;;25.77;;
14883;SDS011;7534;50.762;7.000;2023-04-29T15:18:48;32.42;;;26.75;;
14883;SDS011;7534;50.762;7.000;2023-04-29T15:21:14;33.42;;;26.65;;